sensor_id;sensor_type;location;lat;lon;timestamp;P1;durP1;ratioP1;P2;durP2;ratioP2
2522;SDS011;1272;53.332;9.860;2024-02-23T00:02:17;1.07;;;1.07;;
2522;SDS011;1272;53.332;9.860;2024-02-23T00:04:43;1.10;;;1.00;;
2522;SDS011;1272;53.332;9.860;2024-02-23T00:07:09;1.57;;;1.20;;
2522;SDS011;1272;53.332;9.860;2024-02-23T00:09:35;1.67;;;0.80;;
2522;SDS011;1272;53.332;9.860;2024-02-23T00:12:01;0.80;;;0.80;;
2522;SDS011;1272;53.332;9.860;2024-02-23T00:14:27;1.37;;;0.80;;
2522;SDS011;1272;53.332;9.860;2024-02-23T00:16:55;0.80;;;0.80;;
2522;SDS011;1272;53.332;9.860;2024-02-23T00:19:22;0.77;;;0.77;;
2522;SDS011;1272;53.332;9.860;2024-02-23T00:21:49;1.20;;;0.93;;
2522;SDS011;1272;53.332;9.860;2024-02-23T00:24:15;0.70;;;0.70;;
2522;SDS011;1272;53.332;9.860;2024-02-23T00:26:42;0.70;;;0.70;;
2522;SDS011;1272;53.332;9.860;2024-02-23T00:29:08;0.70;;;0.70;;
2522;SDS011;1272;53.332;9.860;2024-02-23T00:31:34;0.70;;;0.70;;
2522;SDS011;1272;53.332;9.860;2024-02-23T00:34:02;0.90;;;0.90;;
2522;SDS011;1272;53.332;9.860;2024-02-23T00:36:28;1.17;;;0.90;;
2522;SDS011;1272;53.332;9.860;2024-02-23T00:38:54;1.03;;;0.93;;
2522;SDS011;1272;53.332;9.860;2024-02-23T00:41:20;0.83;;;0.80;;
2522;SDS011;1272;53.332;9.860;2024-02-23T00:43:45;6.90;;;1.27;;
2522;SDS011;1272;53.332;9.860;2024-02-23T00:46:12;1.00;;;0.90;;
2522;SDS011;1272;53.332;9.860;2024-02-23T00:48:39;2.17;;;0.90;;
2522;SDS011;1272;53.332;9.860;2024-02-23T00:51:05;0.87;;;0.83;;
2522;SDS011;1272;53.332;9.860;2024-02-23T00:53:32;1.33;;;1.23;;
2522;SDS011;1272;53.332;9.860;2024-02-23T00:55:58;4.27;;;1.20;;
2522;SDS011;1272;53.332;9.860;2024-02-23T00:58:23;2.20;;;1.07;;
2522;SDS011;1272;53.332;9.860;2024-02-23T01:00:49;1.00;;;1.00;;
2522;SDS011;1272;53.332;9.860;2024-02-23T01:03:15;1.63;;;1.20;;
2522;SDS011;1272;53.332;9.860;2024-02-23T01:05:40;0.87;;;0.87;;
2522;SDS011;1272;53.332;9.860;2024-02-23T01:08:07;0.60;;;0.60;;
2522;SDS011;1272;53.332;9.860;2024-02-23T01:10:33;0.60;;;0.60;;
2522;SDS011;1272;53.332;9.860;2024-02-23T01:12:59;0.80;;;0.80;;
2522;SDS011;1272;53.332;9.860;2024-02-23T01:15:25;0.60;;;0.60;;
2522;SDS011;1272;53.332;9.860;2024-02-23T01:17:51;0.67;;;0.67;;
2522;SDS011;1272;53.332;9.860;2024-02-23T01:20:16;0.60;;;0.60;;
2522;SDS011;1272;53.332;9.860;2024-02-23T01:22:42;0.60;;;0.60;;
2522;SDS011;1272;53.332;9.860;2024-02-23T01:25:08;3.07;;;0.80;;
2522;SDS011;1272;53.332;9.860;2024-02-23T01:27:34;0.70;;;0.70;;
2522;SDS011;1272;53.332;9.860;2024-02-23T01:30:00;0.70;;;0.70;;
2522;SDS011;1272;53.332;9.860;2024-02-23T01:32:26;0.70;;;0.70;;
2522;SDS011;1272;53.332;9.860;2024-02-23T01:34:51;1.40;;;0.87;;
2522;SDS011;1272;53.332;9.860;2024-02-23T01:37:17;0.80;;;0.80;;
2522;SDS011;1272;53.332;9.860;2024-02-23T01:39:43;1.33;;;0.73;;
2522;SDS011;1272;53.332;9.860;2024-02-23T01:42:08;1.10;;;0.97;;
2522;SDS011;1272;53.332;9.860;2024-02-23T01:44:34;0.70;;;0.70;;
2522;SDS011;1272;53.332;9.860;2024-02-23T01:47:00;1.17;;;0.73;;
2522;SDS011;1272;53.332;9.860;2024-02-23T01:49:26;1.53;;;0.80;;
2522;SDS011;1272;53.332;9.860;2024-02-23T01:51:57;2.10;;;0.90;;
2522;SDS011;1272;53.332;9.860;2024-02-23T01:54:23;0.80;;;0.80;;
2522;SDS011;1272;53.332;9.860;2024-02-23T01:56:50;0.83;;;0.83;;
2522;SDS011;1272;53.332;9.860;2024-02-23T01:59:16;0.97;;;0.80;;
2522;SDS011;1272;53.332;9.860;2024-02-23T02:01:42;0.80;;;0.80;;
2522;SDS011;1272;53.332;9.860;2024-02-23T02:04:09;1.00;;;1.00;;
2522;SDS011;1272;53.332;9.860;2024-02-23T02:06:34;0.93;;;0.93;;
2522;SDS011;1272;53.332;9.860;2024-02-23T02:09:01;0.70;;;0.70;;
2522;SDS011;1272;53.332;9.860;2024-02-23T02:11:27;0.83;;;0.83;;
2522;SDS011;1272;53.332;9.860;2024-02-23T02:13:53;0.83;;;0.83;;
2522;SDS011;1272;53.332;9.860;2024-02-23T02:16:18;0.80;;;0.80;;
2522;SDS011;1272;53.332;9.860;2024-02-23T02:18:44;1.33;;;0.70;;
2522;SDS011;1272;53.332;9.860;2024-02-23T02:21:11;0.87;;;0.87;;
2522;SDS011;1272;53.332;9.860;2024-02-23T02:23:37;0.60;;;0.60;;
2522;SDS011;1272;53.332;9.860;2024-02-23T02:26:03;0.70;;;0.70;;
2522;SDS011;1272;53.332;9.860;2024-02-23T02:28:29;0.63;;;0.63;;
2522;SDS011;1272;53.332;9.860;2024-02-23T02:30:55;0.97;;;0.90;;
2522;SDS011;1272;53.332;9.860;2024-02-23T02:33:21;0.67;;;0.67;;
2522;SDS011;1272;53.332;9.860;2024-02-23T02:35:47;0.63;;;0.63;;
2522;SDS011;1272;53.332;9.860;2024-02-23T02:38:14;0.60;;;0.60;;
2522;SDS011;1272;53.332;9.860;2024-02-23T02:40:40;0.70;;;0.70;;
2522;SDS011;1272;53.332;9.860;2024-02-23T02:43:06;0.73;;;0.73;;
2522;SDS011;1272;53.332;9.860;2024-02-23T02:45:32;0.87;;;0.70;;
2522;SDS011;1272;53.332;9.860;2024-02-23T02:47:59;0.60;;;0.60;;
2522;SDS011;1272;53.332;9.860;2024-02-23T02:50:29;0.73;;;0.60;;
2522;SDS011;1272;53.332;9.860;2024-02-23T02:52:55;1.30;;;0.70;;
2522;SDS011;1272;53.332;9.860;2024-02-23T02:55:21;0.73;;;0.73;;
2522;SDS011;1272;53.332;9.860;2024-02-23T02:57:47;0.90;;;0.90;;
2522;SDS011;1272;53.332;9.860;2024-02-23T03:00:13;0.60;;;0.60;;
2522;SDS011;1272;53.332;9.860;2024-02-23T03:02:38;0.80;;;0.80;;
2522;SDS011;1272;53.332;9.860;2024-02-23T03:05:04;1.07;;;1.07;;
2522;SDS011;1272;53.332;9.860;2024-02-23T03:07:30;0.90;;;0.77;;
2522;SDS011;1272;53.332;9.860;2024-02-23T03:09:56;0.60;;;0.60;;
2522;SDS011;1272;53.332;9.860;2024-02-23T03:12:22;0.77;;;0.77;;
2522;SDS011;1272;53.332;9.860;2024-02-23T03:14:47;0.60;;;0.60;;
2522;SDS011;1272;53.332;9.860;2024-02-23T03:17:13;0.60;;;0.60;;
2522;SDS011;1272;53.332;9.860;2024-02-23T03:19:39;0.70;;;0.70;;
2522;SDS011;1272;53.332;9.860;2024-02-23T03:22:04;0.60;;;0.60;;
2522;SDS011;1272;53.332;9.860;2024-02-23T03:24:30;0.70;;;0.70;;
2522;SDS011;1272;53.332;9.860;2024-02-23T03:26:56;0.47;;;0.47;;
2522;SDS011;1272;53.332;9.860;2024-02-23T03:29:22;0.60;;;0.60;;
2522;SDS011;1272;53.332;9.860;2024-02-23T03:31:54;0.50;;;0.50;;
2522;SDS011;1272;53.332;9.860;2024-02-23T03:34:20;0.70;;;0.70;;
2522;SDS011;1272;53.332;9.860;2024-02-23T03:36:46;0.70;;;0.70;;
2522;SDS011;1272;53.332;9.860;2024-02-23T03:39:12;0.73;;;0.73;;
2522;SDS011;1272;53.332;9.860;2024-02-23T03:41:38;0.80;;;0.80;;
2522;SDS011;1272;53.332;9.860;2024-02-23T03:44:04;0.67;;;0.67;;
2522;SDS011;1272;53.332;9.860;2024-02-23T03:46:30;0.70;;;0.70;;
2522;SDS011;1272;53.332;9.860;2024-02-23T03:48:55;0.80;;;0.80;;
2522;SDS011;1272;53.332;9.860;2024-02-23T03:51:22;0.60;;;0.60;;
2522;SDS011;1272;53.332;9.860;2024-02-23T03:53:47;0.60;;;0.60;;
2522;SDS011;1272;53.332;9.860;2024-02-23T03:56:13;0.70;;;0.70;;
2522;SDS011;1272;53.332;9.860;2024-02-23T03:58:38;0.80;;;0.80;;
2522;SDS011;1272;53.332;9.860;2024-02-23T04:01:04;0.80;;;0.80;;
2522;SDS011;1272;53.332;9.860;2024-02-23T04:03:30;0.70;;;0.70;;
2522;SDS011;1272;53.332;9.860;2024-02-23T04:05:55;0.70;;;0.70;;
2522;SDS011;1272;53.332;9.860;2024-02-23T04:08:21;0.80;;;0.80;;
2522;SDS011;1272;53.332;9.860;2024-02-23T04:10:47;1.77;;;0.73;;
2522;SDS011;1272;53.332;9.860;2024-02-23T04:13:12;1.03;;;0.73;;
2522;SDS011;1272;53.332;9.860;2024-02-23T04:15:43;0.73;;;0.73;;
2522;SDS011;1272;53.332;9.860;2024-02-23T04:18:09;0.60;;;0.60;;
2522;SDS011;1272;53.332;9.860;2024-02-23T04:20:35;0.63;;;0.63;;
2522;SDS011;1272;53.332;9.860;2024-02-23T04:23:00;1.33;;;0.60;;
2522;SDS011;1272;53.332;9.860;2024-02-23T04:25:26;0.90;;;0.90;;
2522;SDS011;1272;53.332;9.860;2024-02-23T04:27:52;1.00;;;0.90;;
2522;SDS011;1272;53.332;9.860;2024-02-23T04:30:17;0.90;;;0.90;;
2522;SDS011;1272;53.332;9.860;2024-02-23T04:32:43;1.73;;;1.10;;
2522;SDS011;1272;53.332;9.860;2024-02-23T04:35:09;1.30;;;1.20;;
2522;SDS011;1272;53.332;9.860;2024-02-23T04:37:35;1.03;;;1.00;;
2522;SDS011;1272;53.332;9.860;2024-02-23T04:40:01;2.53;;;1.43;;
2522;SDS011;1272;53.332;9.860;2024-02-23T04:42:26;1.43;;;1.33;;
2522;SDS011;1272;53.332;9.860;2024-02-23T04:44:52;1.33;;;1.23;;
2522;SDS011;1272;53.332;9.860;2024-02-23T04:47:20;2.20;;;1.23;;
2522;SDS011;1272;53.332;9.860;2024-02-23T04:49:46;1.77;;;1.70;;
2522;SDS011;1272;53.332;9.860;2024-02-23T04:52:11;1.30;;;1.20;;
2522;SDS011;1272;53.332;9.860;2024-02-23T04:54:37;1.50;;;1.40;;
2522;SDS011;1272;53.332;9.860;2024-02-23T04:57:03;2.97;;;1.67;;
2522;SDS011;1272;53.332;9.860;2024-02-23T04:59:29;2.53;;;1.77;;
2522;SDS011;1272;53.332;9.860;2024-02-23T05:01:57;1.83;;;1.60;;
2522;SDS011;1272;53.332;9.860;2024-02-23T05:04:23;1.03;;;1.03;;
2522;SDS011;1272;53.332;9.860;2024-02-23T05:06:48;1.70;;;1.60;;
2522;SDS011;1272;53.332;9.860;2024-02-23T05:09:14;1.63;;;1.53;;
2522;SDS011;1272;53.332;9.860;2024-02-23T05:11:40;2.10;;;1.80;;
2522;SDS011;1272;53.332;9.860;2024-02-23T05:14:05;4.30;;;1.70;;
2522;SDS011;1272;53.332;9.860;2024-02-23T05:16:31;1.67;;;1.53;;
2522;SDS011;1272;53.332;9.860;2024-02-23T05:18:57;2.30;;;1.60;;
2522;SDS011;1272;53.332;9.860;2024-02-23T05:21:25;2.07;;;1.97;;
2522;SDS011;1272;53.332;9.860;2024-02-23T05:23:51;2.20;;;1.60;;
2522;SDS011;1272;53.332;9.860;2024-02-23T05:26:17;2.27;;;1.57;;
2522;SDS011;1272;53.332;9.860;2024-02-23T05:28:42;4.10;;;1.40;;
2522;SDS011;1272;53.332;9.860;2024-02-23T05:31:09;2.00;;;1.30;;
2522;SDS011;1272;53.332;9.860;2024-02-23T05:33:35;2.33;;;1.80;;
2522;SDS011;1272;53.332;9.860;2024-02-23T05:36:00;2.03;;;1.60;;
2522;SDS011;1272;53.332;9.860;2024-02-23T05:38:26;1.77;;;1.67;;
2522;SDS011;1272;53.332;9.860;2024-02-23T05:40:52;0.90;;;0.90;;
2522;SDS011;1272;53.332;9.860;2024-02-23T05:43:18;1.00;;;1.00;;
2522;SDS011;1272;53.332;9.860;2024-02-23T05:45:43;1.40;;;1.40;;
2522;SDS011;1272;53.332;9.860;2024-02-23T05:48:10;1.50;;;1.40;;
2522;SDS011;1272;53.332;9.860;2024-02-23T05:50:36;0.93;;;0.93;;
2522;SDS011;1272;53.332;9.860;2024-02-23T05:53:02;1.10;;;1.10;;
2522;SDS011;1272;53.332;9.860;2024-02-23T05:55:29;1.20;;;1.20;;
2522;SDS011;1272;53.332;9.860;2024-02-23T05:57:55;1.30;;;1.20;;
2522;SDS011;1272;53.332;9.860;2024-02-23T06:00:21;1.50;;;1.10;;
2522;SDS011;1272;53.332;9.860;2024-02-23T06:02:47;1.37;;;1.37;;
2522;SDS011;1272;53.332;9.860;2024-02-23T06:05:13;1.27;;;1.17;;
2522;SDS011;1272;53.332;9.860;2024-02-23T06:07:39;2.10;;;1.40;;
2522;SDS011;1272;53.332;9.860;2024-02-23T06:10:06;3.03;;;1.47;;
2522;SDS011;1272;53.332;9.860;2024-02-23T06:12:32;1.30;;;1.30;;
2522;SDS011;1272;53.332;9.860;2024-02-23T06:14:58;1.27;;;1.27;;
2522;SDS011;1272;53.332;9.860;2024-02-23T06:17:24;1.70;;;1.60;;
2522;SDS011;1272;53.332;9.860;2024-02-23T06:19:50;1.73;;;0.97;;
2522;SDS011;1272;53.332;9.860;2024-02-23T06:22:17;2.30;;;2.03;;
2522;SDS011;1272;53.332;9.860;2024-02-23T06:24:46;3.67;;;1.77;;
2522;SDS011;1272;53.332;9.860;2024-02-23T06:27:12;2.40;;;2.20;;
2522;SDS011;1272;53.332;9.860;2024-02-23T06:29:38;1.87;;;1.80;;
2522;SDS011;1272;53.332;9.860;2024-02-23T06:32:03;3.77;;;1.47;;
2522;SDS011;1272;53.332;9.860;2024-02-23T06:34:30;5.37;;;2.00;;
2522;SDS011;1272;53.332;9.860;2024-02-23T06:36:55;1.80;;;1.70;;
2522;SDS011;1272;53.332;9.860;2024-02-23T06:39:21;1.70;;;1.60;;
2522;SDS011;1272;53.332;9.860;2024-02-23T06:41:47;2.37;;;2.17;;
2522;SDS011;1272;53.332;9.860;2024-02-23T06:44:12;2.23;;;1.97;;
2522;SDS011;1272;53.332;9.860;2024-02-23T06:46:38;2.70;;;1.90;;
2522;SDS011;1272;53.332;9.860;2024-02-23T06:49:04;2.50;;;1.97;;
2522;SDS011;1272;53.332;9.860;2024-02-23T06:51:30;2.07;;;1.97;;
2522;SDS011;1272;53.332;9.860;2024-02-23T06:53:56;2.60;;;2.00;;
2522;SDS011;1272;53.332;9.860;2024-02-23T06:56:22;3.20;;;1.80;;
2522;SDS011;1272;53.332;9.860;2024-02-23T06:58:48;1.77;;;1.67;;
2522;SDS011;1272;53.332;9.860;2024-02-23T07:01:14;3.10;;;1.90;;
2522;SDS011;1272;53.332;9.860;2024-02-23T07:03:40;1.80;;;1.70;;
2522;SDS011;1272;53.332;9.860;2024-02-23T07:06:07;4.40;;;1.63;;
2522;SDS011;1272;53.332;9.860;2024-02-23T07:08:35;3.20;;;1.87;;
2522;SDS011;1272;53.332;9.860;2024-02-23T07:11:01;2.13;;;2.03;;
2522;SDS011;1272;53.332;9.860;2024-02-23T07:13:27;5.20;;;1.80;;
2522;SDS011;1272;53.332;9.860;2024-02-23T07:15:52;9.67;;;2.90;;
2522;SDS011;1272;53.332;9.860;2024-02-23T07:18:18;2.00;;;1.83;;
2522;SDS011;1272;53.332;9.860;2024-02-23T07:20:44;2.30;;;1.77;;
2522;SDS011;1272;53.332;9.860;2024-02-23T07:23:10;4.70;;;1.63;;
2522;SDS011;1272;53.332;9.860;2024-02-23T07:25:35;1.60;;;1.50;;
2522;SDS011;1272;53.332;9.860;2024-02-23T07:28:01;2.20;;;1.43;;
2522;SDS011;1272;53.332;9.860;2024-02-23T07:30:27;1.60;;;1.50;;
2522;SDS011;1272;53.332;9.860;2024-02-23T07:32:53;1.40;;;1.40;;
2522;SDS011;1272;53.332;9.860;2024-02-23T07:35:18;4.63;;;1.80;;
2522;SDS011;1272;53.332;9.860;2024-02-23T07:37:44;1.30;;;1.20;;
2522;SDS011;1272;53.332;9.860;2024-02-23T07:40:10;3.33;;;1.33;;
2522;SDS011;1272;53.332;9.860;2024-02-23T07:42:37;3.50;;;1.60;;
2522;SDS011;1272;53.332;9.860;2024-02-23T07:45:03;3.67;;;1.70;;
2522;SDS011;1272;53.332;9.860;2024-02-23T07:47:33;5.87;;;1.83;;
2522;SDS011;1272;53.332;9.860;2024-02-23T07:50:00;2.83;;;1.47;;
2522;SDS011;1272;53.332;9.860;2024-02-23T07:52:26;2.03;;;1.40;;
2522;SDS011;1272;53.332;9.860;2024-02-23T07:54:52;1.30;;;1.20;;
2522;SDS011;1272;53.332;9.860;2024-02-23T07:57:18;1.97;;;1.40;;
2522;SDS011;1272;53.332;9.860;2024-02-23T07:59:44;4.53;;;1.93;;
2522;SDS011;1272;53.332;9.860;2024-02-23T08:02:10;4.63;;;1.67;;
2522;SDS011;1272;53.332;9.860;2024-02-23T08:04:36;1.00;;;1.00;;
2522;SDS011;1272;53.332;9.860;2024-02-23T08:07:02;4.00;;;1.90;;
2522;SDS011;1272;53.332;9.860;2024-02-23T08:09:28;2.73;;;1.23;;
2522;SDS011;1272;53.332;9.860;2024-02-23T08:11:53;2.20;;;1.53;;
2522;SDS011;1272;53.332;9.860;2024-02-23T08:14:19;3.07;;;1.37;;
2522;SDS011;1272;53.332;9.860;2024-02-23T08:16:45;1.80;;;1.70;;
2522;SDS011;1272;53.332;9.860;2024-02-23T08:19:10;1.60;;;1.43;;
2522;SDS011;1272;53.332;9.860;2024-02-23T08:21:36;1.47;;;1.37;;
2522;SDS011;1272;53.332;9.860;2024-02-23T08:24:02;1.67;;;1.57;;
2522;SDS011;1272;53.332;9.860;2024-02-23T08:26:28;1.50;;;1.40;;
2522;SDS011;1272;53.332;9.860;2024-02-23T08:28:54;3.97;;;2.27;;
2522;SDS011;1272;53.332;9.860;2024-02-23T08:31:20;1.93;;;1.70;;
2522;SDS011;1272;53.332;9.860;2024-02-23T08:33:46;3.47;;;1.37;;
2522;SDS011;1272;53.332;9.860;2024-02-23T08:36:12;2.47;;;1.87;;
2522;SDS011;1272;53.332;9.860;2024-02-23T08:38:37;1.33;;;1.23;;
2522;SDS011;1272;53.332;9.860;2024-02-23T08:41:04;2.73;;;1.10;;
2522;SDS011;1272;53.332;9.860;2024-02-23T08:43:29;2.00;;;1.33;;
2522;SDS011;1272;53.332;9.860;2024-02-23T08:45:55;4.13;;;1.60;;
2522;SDS011;1272;53.332;9.860;2024-02-23T08:48:21;1.10;;;1.10;;
2522;SDS011;1272;53.332;9.860;2024-02-23T08:50:47;2.20;;;1.53;;
2522;SDS011;1272;53.332;9.860;2024-02-23T08:53:12;3.37;;;1.33;;
2522;SDS011;1272;53.332;9.860;2024-02-23T08:55:38;2.40;;;1.20;;
2522;SDS011;1272;53.332;9.860;2024-02-23T08:58:04;1.67;;;1.57;;
2522;SDS011;1272;53.332;9.860;2024-02-23T09:00:31;5.53;;;1.30;;
2522;SDS011;1272;53.332;9.860;2024-02-23T09:02:57;1.53;;;1.43;;
2522;SDS011;1272;53.332;9.860;2024-02-23T09:05:22;3.23;;;1.27;;
2522;SDS011;1272;53.332;9.860;2024-02-23T09:07:48;1.60;;;1.50;;
2522;SDS011;1272;53.332;9.860;2024-02-23T09:10:14;2.33;;;1.40;;
2522;SDS011;1272;53.332;9.860;2024-02-23T09:12:40;1.93;;;1.60;;
2522;SDS011;1272;53.332;9.860;2024-02-23T09:15:05;2.30;;;1.43;;
2522;SDS011;1272;53.332;9.860;2024-02-23T09:17:31;5.03;;;2.40;;
2522;SDS011;1272;53.332;9.860;2024-02-23T09:19:57;2.00;;;1.33;;
2522;SDS011;1272;53.332;9.860;2024-02-23T09:22:23;1.33;;;1.33;;
2522;SDS011;1272;53.332;9.860;2024-02-23T09:24:48;1.33;;;1.23;;
2522;SDS011;1272;53.332;9.860;2024-02-23T09:27:14;5.37;;;1.73;;
2522;SDS011;1272;53.332;9.860;2024-02-23T09:29:40;3.03;;;1.57;;
2522;SDS011;1272;53.332;9.860;2024-02-23T09:32:09;2.20;;;1.30;;
2522;SDS011;1272;53.332;9.860;2024-02-23T09:34:34;2.23;;;1.47;;
2522;SDS011;1272;53.332;9.860;2024-02-23T09:37:00;5.17;;;1.70;;
2522;SDS011;1272;53.332;9.860;2024-02-23T09:39:26;2.30;;;1.70;;
2522;SDS011;1272;53.332;9.860;2024-02-23T09:41:55;1.20;;;1.10;;
2522;SDS011;1272;53.332;9.860;2024-02-23T09:44:22;1.47;;;1.40;;
2522;SDS011;1272;53.332;9.860;2024-02-23T09:46:48;5.57;;;1.80;;
2522;SDS011;1272;53.332;9.860;2024-02-23T09:49:14;1.40;;;1.30;;
2522;SDS011;1272;53.332;9.860;2024-02-23T09:51:41;1.70;;;1.60;;
2522;SDS011;1272;53.332;9.860;2024-02-23T09:54:08;4.13;;;1.70;;
2522;SDS011;1272;53.332;9.860;2024-02-23T09:56:34;2.10;;;1.10;;
2522;SDS011;1272;53.332;9.860;2024-02-23T09:59:02;0.77;;;0.77;;
2522;SDS011;1272;53.332;9.860;2024-02-23T10:01:29;2.10;;;1.27;;
2522;SDS011;1272;53.332;9.860;2024-02-23T10:03:56;2.60;;;1.40;;
2522;SDS011;1272;53.332;9.860;2024-02-23T10:06:24;3.03;;;0.90;;
2522;SDS011;1272;53.332;9.860;2024-02-23T10:08:50;2.53;;;1.47;;
2522;SDS011;1272;53.332;9.860;2024-02-23T10:11:18;4.50;;;1.40;;
2522;SDS011;1272;53.332;9.860;2024-02-23T10:13:47;2.63;;;1.43;;
2522;SDS011;1272;53.332;9.860;2024-02-23T10:16:20;3.00;;;1.33;;
2522;SDS011;1272;53.332;9.860;2024-02-23T10:18:49;1.23;;;1.10;;
2522;SDS011;1272;53.332;9.860;2024-02-23T10:21:15;4.83;;;1.10;;
2522;SDS011;1272;53.332;9.860;2024-02-23T10:23:42;0.97;;;0.90;;
2522;SDS011;1272;53.332;9.860;2024-02-23T10:26:09;4.47;;;1.77;;
2522;SDS011;1272;53.332;9.860;2024-02-23T10:28:36;2.97;;;1.20;;
2522;SDS011;1272;53.332;9.860;2024-02-23T10:31:06;2.03;;;0.93;;
2522;SDS011;1272;53.332;9.860;2024-02-23T10:33:31;1.13;;;1.03;;
2522;SDS011;1272;53.332;9.860;2024-02-23T10:35:57;2.20;;;0.90;;
2522;SDS011;1272;53.332;9.860;2024-02-23T10:38:28;1.60;;;0.90;;
2522;SDS011;1272;53.332;9.860;2024-02-23T10:40:57;1.03;;;0.93;;
2522;SDS011;1272;53.332;9.860;2024-02-23T10:43:43;1.20;;;1.10;;
2522;SDS011;1272;53.332;9.860;2024-02-23T10:46:11;0.83;;;0.83;;
2522;SDS011;1272;53.332;9.860;2024-02-23T10:48:40;1.30;;;1.20;;
2522;SDS011;1272;53.332;9.860;2024-02-23T10:51:08;3.37;;;1.10;;
2522;SDS011;1272;53.332;9.860;2024-02-23T10:53:35;3.60;;;1.47;;
2522;SDS011;1272;53.332;9.860;2024-02-23T10:56:02;0.87;;;0.87;;
2522;SDS011;1272;53.332;9.860;2024-02-23T10:58:30;5.30;;;1.20;;
2522;SDS011;1272;53.332;9.860;2024-02-23T11:01:02;0.90;;;0.90;;
2522;SDS011;1272;53.332;9.860;2024-02-23T11:03:31;4.80;;;1.00;;
2522;SDS011;1272;53.332;9.860;2024-02-23T11:05:59;2.03;;;1.30;;
2522;SDS011;1272;53.332;9.860;2024-02-23T11:08:27;1.27;;;1.00;;
2522;SDS011;1272;53.332;9.860;2024-02-23T11:10:53;2.60;;;1.03;;
2522;SDS011;1272;53.332;9.860;2024-02-23T11:13:38;1.17;;;0.90;;
2522;SDS011;1272;53.332;9.860;2024-02-23T11:16:05;1.00;;;1.00;;
2522;SDS011;1272;53.332;9.860;2024-02-23T11:18:34;0.87;;;0.87;;
2522;SDS011;1272;53.332;9.860;2024-02-23T11:21:02;1.00;;;1.00;;
2522;SDS011;1272;53.332;9.860;2024-02-23T11:23:42;1.87;;;1.03;;
2522;SDS011;1272;53.332;9.860;2024-02-23T11:26:18;3.90;;;1.57;;
2522;SDS011;1272;53.332;9.860;2024-02-23T11:28:50;2.50;;;1.40;;
2522;SDS011;1272;53.332;9.860;2024-02-23T11:31:19;2.17;;;1.00;;
2522;SDS011;1272;53.332;9.860;2024-02-23T11:34:07;0.73;;;0.73;;
2522;SDS011;1272;53.332;9.860;2024-02-23T11:36:34;3.90;;;1.00;;
2522;SDS011;1272;53.332;9.860;2024-02-23T11:39:01;1.73;;;0.97;;
2522;SDS011;1272;53.332;9.860;2024-02-23T11:41:28;3.00;;;1.73;;
2522;SDS011;1272;53.332;9.860;2024-02-23T11:43:55;0.90;;;0.90;;
2522;SDS011;1272;53.332;9.860;2024-02-23T11:46:21;1.57;;;1.03;;
2522;SDS011;1272;53.332;9.860;2024-02-23T11:48:48;1.07;;;0.70;;
2522;SDS011;1272;53.332;9.860;2024-02-23T11:51:22;1.13;;;0.90;;
2522;SDS011;1272;53.332;9.860;2024-02-23T11:53:48;1.60;;;1.03;;
2522;SDS011;1272;53.332;9.860;2024-02-23T11:56:15;1.20;;;1.10;;
2522;SDS011;1272;53.332;9.860;2024-02-23T11:58:41;0.70;;;0.70;;
2522;SDS011;1272;53.332;9.860;2024-02-23T12:01:07;0.93;;;0.87;;
2522;SDS011;1272;53.332;9.860;2024-02-23T12:03:33;1.03;;;0.90;;
2522;SDS011;1272;53.332;9.860;2024-02-23T12:06:01;1.70;;;1.00;;
2522;SDS011;1272;53.332;9.860;2024-02-23T12:08:29;1.30;;;0.80;;
2522;SDS011;1272;53.332;9.860;2024-02-23T12:11:02;1.30;;;1.20;;
2522;SDS011;1272;53.332;9.860;2024-02-23T12:13:33;3.90;;;0.90;;
2522;SDS011;1272;53.332;9.860;2024-02-23T12:16:02;3.17;;;1.10;;
2522;SDS011;1272;53.332;9.860;2024-02-23T12:18:29;1.10;;;1.00;;
2522;SDS011;1272;53.332;9.860;2024-02-23T12:21:00;1.03;;;0.93;;
2522;SDS011;1272;53.332;9.860;2024-02-23T12:23:43;0.90;;;0.90;;
2522;SDS011;1272;53.332;9.860;2024-02-23T12:26:10;1.10;;;1.00;;
2522;SDS011;1272;53.332;9.860;2024-02-23T12:28:38;1.03;;;0.93;;
2522;SDS011;1272;53.332;9.860;2024-02-23T12:31:05;0.93;;;0.93;;
2522;SDS011;1272;53.332;9.860;2024-02-23T12:33:32;0.90;;;0.90;;
2522;SDS011;1272;53.332;9.860;2024-02-23T12:36:05;1.00;;;1.00;;
2522;SDS011;1272;53.332;9.860;2024-02-23T12:38:32;0.90;;;0.90;;
2522;SDS011;1272;53.332;9.860;2024-02-23T12:40:59;0.90;;;0.90;;
2522;SDS011;1272;53.332;9.860;2024-02-23T12:43:25;0.80;;;0.80;;
2522;SDS011;1272;53.332;9.860;2024-02-23T12:45:52;1.87;;;1.00;;
2522;SDS011;1272;53.332;9.860;2024-02-23T12:48:19;1.10;;;1.00;;
2522;SDS011;1272;53.332;9.860;2024-02-23T12:50:46;2.43;;;2.33;;
2522;SDS011;1272;53.332;9.860;2024-02-23T12:55:58;1.33;;;1.23;;
2522;SDS011;1272;53.332;9.860;2024-02-23T12:58:27;1.03;;;0.90;;
2522;SDS011;1272;53.332;9.860;2024-02-23T13:00:53;1.10;;;0.80;;
2522;SDS011;1272;53.332;9.860;2024-02-23T13:03:19;1.17;;;0.90;;
2522;SDS011;1272;53.332;9.860;2024-02-23T13:05:46;1.47;;;0.83;;
2522;SDS011;1272;53.332;9.860;2024-02-23T13:08:12;1.17;;;0.80;;
2522;SDS011;1272;53.332;9.860;2024-02-23T13:10:37;2.67;;;0.90;;
2522;SDS011;1272;53.332;9.860;2024-02-23T13:13:03;2.10;;;2.00;;
2522;SDS011;1272;53.332;9.860;2024-02-23T13:15:29;1.43;;;0.80;;
2522;SDS011;1272;53.332;9.860;2024-02-23T13:17:54;1.43;;;0.70;;
2522;SDS011;1272;53.332;9.860;2024-02-23T13:20:22;2.20;;;1.13;;
2522;SDS011;1272;53.332;9.860;2024-02-23T13:22:47;1.53;;;0.70;;
2522;SDS011;1272;53.332;9.860;2024-02-23T13:25:14;0.67;;;0.67;;
2522;SDS011;1272;53.332;9.860;2024-02-23T13:27:40;2.23;;;1.03;;
2522;SDS011;1272;53.332;9.860;2024-02-23T13:30:06;1.10;;;0.90;;
2522;SDS011;1272;53.332;9.860;2024-02-23T13:32:32;2.13;;;0.77;;
2522;SDS011;1272;53.332;9.860;2024-02-23T13:34:58;1.13;;;0.70;;
2522;SDS011;1272;53.332;9.860;2024-02-23T13:37:23;0.70;;;0.70;;
2522;SDS011;1272;53.332;9.860;2024-02-23T13:39:51;0.67;;;0.67;;
2522;SDS011;1272;53.332;9.860;2024-02-23T13:42:16;0.83;;;0.83;;
2522;SDS011;1272;53.332;9.860;2024-02-23T13:44:42;0.80;;;0.80;;
2522;SDS011;1272;53.332;9.860;2024-02-23T13:47:08;0.70;;;0.70;;
2522;SDS011;1272;53.332;9.860;2024-02-23T13:49:36;1.03;;;0.70;;
2522;SDS011;1272;53.332;9.860;2024-02-23T13:52:02;1.67;;;1.10;;
2522;SDS011;1272;53.332;9.860;2024-02-23T13:54:27;0.90;;;0.90;;
2522;SDS011;1272;53.332;9.860;2024-02-23T13:56:53;5.60;;;0.80;;
2522;SDS011;1272;53.332;9.860;2024-02-23T13:59:19;1.30;;;0.77;;
2522;SDS011;1272;53.332;9.860;2024-02-23T14:01:44;2.10;;;1.10;;
2522;SDS011;1272;53.332;9.860;2024-02-23T14:04:10;1.43;;;1.00;;
2522;SDS011;1272;53.332;9.860;2024-02-23T14:06:36;1.80;;;0.87;;
2522;SDS011;1272;53.332;9.860;2024-02-23T14:09:01;1.33;;;1.20;;
2522;SDS011;1272;53.332;9.860;2024-02-23T14:11:29;1.00;;;0.83;;
2522;SDS011;1272;53.332;9.860;2024-02-23T14:13:55;2.00;;;0.67;;
2522;SDS011;1272;53.332;9.860;2024-02-23T14:16:21;0.77;;;0.77;;
2522;SDS011;1272;53.332;9.860;2024-02-23T14:18:48;1.47;;;1.20;;
2522;SDS011;1272;53.332;9.860;2024-02-23T14:21:14;0.77;;;0.77;;
2522;SDS011;1272;53.332;9.860;2024-02-23T14:23:41;0.80;;;0.80;;
2522;SDS011;1272;53.332;9.860;2024-02-23T14:26:07;0.70;;;0.70;;
2522;SDS011;1272;53.332;9.860;2024-02-23T14:28:33;0.70;;;0.70;;
2522;SDS011;1272;53.332;9.860;2024-02-23T14:30:59;3.77;;;0.90;;
2522;SDS011;1272;53.332;9.860;2024-02-23T14:33:25;1.53;;;0.83;;
2522;SDS011;1272;53.332;9.860;2024-02-23T14:35:50;0.70;;;0.70;;
2522;SDS011;1272;53.332;9.860;2024-02-23T14:38:16;1.70;;;1.00;;
2522;SDS011;1272;53.332;9.860;2024-02-23T14:40:45;0.80;;;0.80;;
2522;SDS011;1272;53.332;9.860;2024-02-23T14:43:11;1.33;;;0.80;;
2522;SDS011;1272;53.332;9.860;2024-02-23T14:45:37;2.13;;;0.90;;
2522;SDS011;1272;53.332;9.860;2024-02-23T14:48:03;0.60;;;0.60;;
2522;SDS011;1272;53.332;9.860;2024-02-23T14:50:29;0.73;;;0.73;;
2522;SDS011;1272;53.332;9.860;2024-02-23T14:52:54;2.40;;;1.03;;
2522;SDS011;1272;53.332;9.860;2024-02-23T14:55:20;0.83;;;0.80;;
2522;SDS011;1272;53.332;9.860;2024-02-23T14:57:46;1.17;;;1.07;;
2522;SDS011;1272;53.332;9.860;2024-02-23T15:00:12;1.17;;;0.87;;
2522;SDS011;1272;53.332;9.860;2024-02-23T15:02:38;2.30;;;1.17;;
2522;SDS011;1272;53.332;9.860;2024-02-23T15:05:07;0.70;;;0.70;;
2522;SDS011;1272;53.332;9.860;2024-02-23T15:07:33;1.73;;;1.00;;
2522;SDS011;1272;53.332;9.860;2024-02-23T15:10:00;2.70;;;1.00;;
2522;SDS011;1272;53.332;9.860;2024-02-23T15:12:31;1.10;;;0.70;;
2522;SDS011;1272;53.332;9.860;2024-02-23T15:14:57;2.70;;;1.10;;